Share

Atomic City, ID

MyIdahoWeather.com (KIDBLACK2) Elev 4534 ft | 43.27 °N, 112.52 °W | Change Station

Current weather conditions updated 2 seconds ago

Clear
Clear
44.0 °F
Feels Like 37 °F
N
13.8
Wind Variable Wind from South
Gusts 16.1 mph
Sunrise 6:40 AM
Sunset 8:20 PM
Moon Waning Gibbous

Today is forecast to be Cooler than yesterday.

Pressure 29.92 in
Visibility 10.0 miles
Clouds Clear
Windchill 37 °F
Dew Point 31 °F
Humidity 61%
Rainfall 0.00 in
Snow Depth Not available.
UV 0.0 out of 16
Pollen 10.30 out of 12
PM2.5 Good
Flu Activity Sporadic
METAR KIDA 200953Z AUTO 20019KT 10SM CLR 12/00 A3000 RMK AO2 SLP130 T01170000

More Conditions Fewer Conditions

Pressure 29.92 in
Visibility 10.0 miles
Clouds Clear
Windchill 37 °F
Dew Point 31 °F
Humidity 61%
Rainfall 0.00 in
Snow Depth Not available.
UV 0.0 out of 16
Pollen 10.30 out of 12
PM2.5 Good
Flu Activity Sporadic
METAR KIDA 200953Z AUTO 20019KT 10SM CLR 12/00 A3000 RMK AO2 SLP130 T01170000

More Conditions Fewer Conditions

10-Day Weather Forecast

Almanac

Astronomy

Apr. 20, 2014 Rise Set
Actual Time 6:40 AM MDT 8:20 PM MDT
Civil Twilight 6:10 AM MDT 8:50 PM MDT
Nautical Twilight 5:33 AM MDT 9:27 PM MDT
Astronomical Twilight 4:54 AM MDT 10:07 PM MDT
Moon 1:07 AM MDT 11:01 AM MDT
Length of Visible Light 14h 40m
Length of Day
13h 39m
Tomorrow will be 2m 46s longer.
Waning Gibbous, 71% of the Moon is Illuminated
Today
Waning Gibbous
Apr 22
Last Quarter
Apr 29
New
May 6
First Quarter
May 14
Full

Today's Extremes

State Highs State Lows

Community

  • Easter Greetings
    Easter Greetings
  • Sunny day at the coast-Cape Arago Lighthouse
    Sunny day at the coast-Cape Arago Lighthouse
  • Cherry Blossoms
    Cherry Blossoms
  • White-Crowned Sparrow
    White-Crowned Sparrow
  • New Day
    New Day

WunderPhotos

Upload Photos

1,703,135 photos uploaded!

WunderBlogs® & News

Nearby

Air Quality

  Air Quality AQ Index Pollutant
Yesterday Good
PM2.5
Current Good
PM2.5
Sunday Good
PM2.5
Monday Good
PM2.5

Snow Depth

Station Depth Elevation
Wildhorse Divide 19 in 6490 ft
Hilts Creek 17 in 8000 ft
Sheep Mountain 14 in 6570 ft
Swede Peak 11 in 7640 ft
Bear Canyon 21 in 7900 ft

Coastal Water Temperatures

Place Temperature
No Stations Reporting

Earthquake Activity

City Distance Mag. Time & Date
Challis, Idaho 114 miles 2.5 9:50 PM MDT
2014-04-14
Challis, Idaho 108 miles 2.5 9:29 PM MDT
2014-04-14
Challis, Idaho 116 miles 2.5 9:12 PM MDT
2014-04-14
Challis, Idaho 113 miles 2.7 4:35 PM MDT
2014-04-14
Minimum magnitude displayed is 2.5.

Nearby Weather Stations

Station Location Temp. Windchill Dew Point Humidity Wind Precip. Elev Updated Type
MyIdahoWeather.com, Blackfoot, ID 44.0 °F 37 °F 31 °F 61% South  at  13.8 mph 0.00 in / hr 4534 ft 4:49 AM MDT Rapid Fire

Show More Stations Show Fewer Stations

What do you think?

We're not finished. Please let us know what you like, what you don't like, and what you are still missing.